sensor_id;sensor_type;location;lat;lon;timestamp;temperature;humidity
76203;DHT22;64985;46.364;17.008;2023-05-18T00:01:05;9.90;99.90
76203;DHT22;64985;46.364;17.008;2023-05-18T00:04:07;9.90;99.90
76203;DHT22;64985;46.364;17.008;2023-05-18T00:07:09;9.90;99.90
76203;DHT22;64985;46.364;17.008;2023-05-18T00:10:11;9.90;99.90
76203;DHT22;64985;46.364;17.008;2023-05-18T00:13:15;9.90;99.90
76203;DHT22;64985;46.364;17.008;2023-05-18T00:16:17;9.90;99.90
76203;DHT22;64985;46.364;17.008;2023-05-18T00:19:20;9.90;99.90
76203;DHT22;64985;46.364;17.008;2023-05-18T00:22:23;9.90;99.90
76203;DHT22;64985;46.364;17.008;2023-05-18T00:25:27;9.80;99.90
76203;DHT22;64985;46.364;17.008;2023-05-18T00:28:29;9.90;99.90
76203;DHT22;64985;46.364;17.008;2023-05-18T00:31:32;9.90;99.90
76203;DHT22;64985;46.364;17.008;2023-05-18T00:34:39;9.90;99.90
76203;DHT22;64985;46.364;17.008;2023-05-18T00:37:41;9.90;99.90
76203;DHT22;64985;46.364;17.008;2023-05-18T00:40:43;9.90;99.90
76203;DHT22;64985;46.364;17.008;2023-05-18T00:43:45;9.90;99.90
76203;DHT22;64985;46.364;17.008;2023-05-18T00:46:48;9.90;99.90
76203;DHT22;64985;46.364;17.008;2023-05-18T00:49:50;9.90;99.90
76203;DHT22;64985;46.364;17.008;2023-05-18T00:52:53;9.80;99.90
76203;DHT22;64985;46.364;17.008;2023-05-18T00:55:55;9.80;99.90
76203;DHT22;64985;46.364;17.008;2023-05-18T00:58:57;9.80;99.90
76203;DHT22;64985;46.364;17.008;2023-05-18T01:02:00;9.80;99.90
76203;DHT22;64985;46.364;17.008;2023-05-18T01:05:02;9.80;99.90
76203;DHT22;64985;46.364;17.008;2023-05-18T01:08:06;9.80;99.90
76203;DHT22;64985;46.364;17.008;2023-05-18T01:11:23;9.80;99.90
76203;DHT22;64985;46.364;17.008;2023-05-18T01:24:51;9.80;99.90
76203;DHT22;64985;46.364;17.008;2023-05-18T01:28:00;9.80;99.90
76203;DHT22;64985;46.364;17.008;2023-05-18T01:31:08;9.90;99.90
76203;DHT22;64985;46.364;17.008;2023-05-18T01:34:10;9.90;99.90
76203;DHT22;64985;46.364;17.008;2023-05-18T01:37:12;9.90;99.90
76203;DHT22;64985;46.364;17.008;2023-05-18T01:40:15;9.80;99.90
76203;DHT22;64985;46.364;17.008;2023-05-18T01:43:19;9.90;99.90
76203;DHT22;64985;46.364;17.008;2023-05-18T01:50:01;9.80;99.90
76203;DHT22;64985;46.364;17.008;2023-05-18T01:53:11;9.80;99.90
76203;DHT22;64985;46.364;17.008;2023-05-18T01:56:15;9.80;99.90
76203;DHT22;64985;46.364;17.008;2023-05-18T01:59:18;9.80;99.90
76203;DHT22;64985;46.364;17.008;2023-05-18T02:02:21;9.80;99.90
76203;DHT22;64985;46.364;17.008;2023-05-18T02:05:23;9.80;99.90
76203;DHT22;64985;46.364;17.008;2023-05-18T02:08:25;9.80;99.90
76203;DHT22;64985;46.364;17.008;2023-05-18T02:11:27;9.90;99.90
76203;DHT22;64985;46.364;17.008;2023-05-18T02:14:29;9.90;99.90
76203;DHT22;64985;46.364;17.008;2023-05-18T02:17:32;9.90;99.90
76203;DHT22;64985;46.364;17.008;2023-05-18T02:20:34;9.80;99.90
76203;DHT22;64985;46.364;17.008;2023-05-18T02:23:41;9.80;99.90
76203;DHT22;64985;46.364;17.008;2023-05-18T02:26:43;9.80;99.90
76203;DHT22;64985;46.364;17.008;2023-05-18T02:29:45;9.80;99.90
76203;DHT22;64985;46.364;17.008;2023-05-18T02:32:48;9.80;99.90
76203;DHT22;64985;46.364;17.008;2023-05-18T02:35:50;9.80;99.90
76203;DHT22;64985;46.364;17.008;2023-05-18T02:38:53;9.80;99.90
76203;DHT22;64985;46.364;17.008;2023-05-18T02:41:55;9.80;99.90
76203;DHT22;64985;46.364;17.008;2023-05-18T02:44:57;9.80;99.90
76203;DHT22;64985;46.364;17.008;2023-05-18T02:47:59;9.80;99.90
76203;DHT22;64985;46.364;17.008;2023-05-18T02:51:02;9.80;99.90
76203;DHT22;64985;46.364;17.008;2023-05-18T02:54:04;9.80;99.90
76203;DHT22;64985;46.364;17.008;2023-05-18T02:57:06;9.80;99.90
76203;DHT22;64985;46.364;17.008;2023-05-18T03:00:09;9.80;99.90
76203;DHT22;64985;46.364;17.008;2023-05-18T03:03:12;9.80;99.90
76203;DHT22;64985;46.364;17.008;2023-05-18T03:06:16;9.80;99.90
76203;DHT22;64985;46.364;17.008;2023-05-18T03:09:18;9.70;99.90
76203;DHT22;64985;46.364;17.008;2023-05-18T03:12:21;9.70;99.90
76203;DHT22;64985;46.364;17.008;2023-05-18T03:15:23;9.70;99.90
76203;DHT22;64985;46.364;17.008;2023-05-18T03:18:25;9.70;99.90
76203;DHT22;64985;46.364;17.008;2023-05-18T03:21:27;9.80;99.90
76203;DHT22;64985;46.364;17.008;2023-05-18T03:24:34;9.80;99.90
76203;DHT22;64985;46.364;17.008;2023-05-18T03:27:41;9.80;99.90
76203;DHT22;64985;46.364;17.008;2023-05-18T03:30:43;9.70;99.90
76203;DHT22;64985;46.364;17.008;2023-05-18T03:33:45;9.70;99.90
76203;DHT22;64985;46.364;17.008;2023-05-18T03:36:47;9.70;99.90
76203;DHT22;64985;46.364;17.008;2023-05-18T03:39:49;9.70;99.90
76203;DHT22;64985;46.364;17.008;2023-05-18T03:42:51;9.70;99.90
76203;DHT22;64985;46.364;17.008;2023-05-18T03:45:53;9.70;99.90
76203;DHT22;64985;46.364;17.008;2023-05-18T03:48:55;9.70;99.90
76203;DHT22;64985;46.364;17.008;2023-05-18T03:51:58;9.70;99.90
76203;DHT22;64985;46.364;17.008;2023-05-18T03:55:01;9.70;99.90
76203;DHT22;64985;46.364;17.008;2023-05-18T03:58:03;9.70;99.90
76203;DHT22;64985;46.364;17.008;2023-05-18T04:01:05;9.70;99.90
76203;DHT22;64985;46.364;17.008;2023-05-18T04:04:07;9.70;99.90
76203;DHT22;64985;46.364;17.008;2023-05-18T04:07:13;9.70;99.90
76203;DHT22;64985;46.364;17.008;2023-05-18T04:10:17;9.70;99.90
76203;DHT22;64985;46.364;17.008;2023-05-18T04:13:20;9.70;99.90
76203;DHT22;64985;46.364;17.008;2023-05-18T04:16:23;9.70;99.90
76203;DHT22;64985;46.364;17.008;2023-05-18T04:19:25;9.70;99.90
76203;DHT22;64985;46.364;17.008;2023-05-18T04:22:46;9.70;99.90
76203;DHT22;64985;46.364;17.008;2023-05-18T04:25:49;9.70;99.90
76203;DHT22;64985;46.364;17.008;2023-05-18T04:28:51;9.70;99.90
76203;DHT22;64985;46.364;17.008;2023-05-18T04:31:54;9.80;99.90
76203;DHT22;64985;46.364;17.008;2023-05-18T04:35:09;9.80;99.90
76203;DHT22;64985;46.364;17.008;2023-05-18T04:38:12;9.80;99.90
76203;DHT22;64985;46.364;17.008;2023-05-18T04:41:15;9.80;99.90
76203;DHT22;64985;46.364;17.008;2023-05-18T04:44:21;9.80;99.90
76203;DHT22;64985;46.364;17.008;2023-05-18T04:47:23;9.80;99.90
76203;DHT22;64985;46.364;17.008;2023-05-18T04:50:25;9.80;99.90
76203;DHT22;64985;46.364;17.008;2023-05-18T04:53:28;9.80;99.90
76203;DHT22;64985;46.364;17.008;2023-05-18T04:56:34;9.80;99.90
76203;DHT22;64985;46.364;17.008;2023-05-18T04:59:36;9.80;99.90
76203;DHT22;64985;46.364;17.008;2023-05-18T05:02:38;9.80;99.90
76203;DHT22;64985;46.364;17.008;2023-05-18T05:05:41;9.80;99.90
76203;DHT22;64985;46.364;17.008;2023-05-18T05:08:43;9.80;99.90
76203;DHT22;64985;46.364;17.008;2023-05-18T05:11:45;9.80;99.90
76203;DHT22;64985;46.364;17.008;2023-05-18T05:14:47;9.90;99.90
76203;DHT22;64985;46.364;17.008;2023-05-18T05:17:49;9.90;99.90
76203;DHT22;64985;46.364;17.008;2023-05-18T05:20:52;9.90;99.90
76203;DHT22;64985;46.364;17.008;2023-05-18T05:23:55;9.90;99.90
76203;DHT22;64985;46.364;17.008;2023-05-18T05:26:57;10.00;99.90
76203;DHT22;64985;46.364;17.008;2023-05-18T05:29:59;10.00;99.90
76203;DHT22;64985;46.364;17.008;2023-05-18T05:33:01;10.00;99.90
76203;DHT22;64985;46.364;17.008;2023-05-18T05:36:03;10.00;99.90
76203;DHT22;64985;46.364;17.008;2023-05-18T05:39:06;10.00;99.90
76203;DHT22;64985;46.364;17.008;2023-05-18T05:42:08;10.10;99.90
76203;DHT22;64985;46.364;17.008;2023-05-18T05:45:10;10.10;99.90
76203;DHT22;64985;46.364;17.008;2023-05-18T05:48:12;10.10;99.90
76203;DHT22;64985;46.364;17.008;2023-05-18T05:51:15;10.10;99.90
76203;DHT22;64985;46.364;17.008;2023-05-18T05:54:17;10.10;99.90
76203;DHT22;64985;46.364;17.008;2023-05-18T05:57:19;10.20;99.90
76203;DHT22;64985;46.364;17.008;2023-05-18T06:00:22;10.20;99.90
76203;DHT22;64985;46.364;17.008;2023-05-18T06:03:25;10.20;99.90
76203;DHT22;64985;46.364;17.008;2023-05-18T06:06:27;10.20;99.90
76203;DHT22;64985;46.364;17.008;2023-05-18T06:09:29;10.20;99.90
76203;DHT22;64985;46.364;17.008;2023-05-18T06:12:32;10.20;99.90
76203;DHT22;64985;46.364;17.008;2023-05-18T06:15:34;10.20;99.90
76203;DHT22;64985;46.364;17.008;2023-05-18T06:18:36;10.10;99.90
76203;DHT22;64985;46.364;17.008;2023-05-18T06:21:38;10.10;99.90
76203;DHT22;64985;46.364;17.008;2023-05-18T06:24:43;10.20;99.90
76203;DHT22;64985;46.364;17.008;2023-05-18T06:27:45;10.30;99.90
76203;DHT22;64985;46.364;17.008;2023-05-18T06:30:47;10.30;99.90
76203;DHT22;64985;46.364;17.008;2023-05-18T06:33:49;10.30;99.90
76203;DHT22;64985;46.364;17.008;2023-05-18T06:36:51;10.40;99.90
76203;DHT22;64985;46.364;17.008;2023-05-18T06:39:53;10.40;99.90
76203;DHT22;64985;46.364;17.008;2023-05-18T06:42:55;10.50;99.90
76203;DHT22;64985;46.364;17.008;2023-05-18T06:45:58;10.50;99.90
76203;DHT22;64985;46.364;17.008;2023-05-18T06:49:00;10.50;99.90
76203;DHT22;64985;46.364;17.008;2023-05-18T06:52:03;10.60;99.90
76203;DHT22;64985;46.364;17.008;2023-05-18T06:55:05;10.70;99.90
76203;DHT22;64985;46.364;17.008;2023-05-18T06:58:08;10.80;99.90
76203;DHT22;64985;46.364;17.008;2023-05-18T07:01:10;10.80;99.90
76203;DHT22;64985;46.364;17.008;2023-05-18T07:04:12;10.80;99.90
76203;DHT22;64985;46.364;17.008;2023-05-18T07:07:15;10.90;99.90
76203;DHT22;64985;46.364;17.008;2023-05-18T07:10:17;10.90;99.90
76203;DHT22;64985;46.364;17.008;2023-05-18T07:13:20;10.80;99.90
76203;DHT22;64985;46.364;17.008;2023-05-18T07:16:22;10.90;99.90
76203;DHT22;64985;46.364;17.008;2023-05-18T07:19:24;11.00;99.90
76203;DHT22;64985;46.364;17.008;2023-05-18T07:22:26;11.10;99.90
76203;DHT22;64985;46.364;17.008;2023-05-18T07:25:28;11.20;99.90
76203;DHT22;64985;46.364;17.008;2023-05-18T07:28:31;11.30;99.90
76203;DHT22;64985;46.364;17.008;2023-05-18T07:31:33;11.30;99.90
76203;DHT22;64985;46.364;17.008;2023-05-18T07:34:39;11.40;99.90
76203;DHT22;64985;46.364;17.008;2023-05-18T07:37:44;11.40;99.90
76203;DHT22;64985;46.364;17.008;2023-05-18T07:40:46;11.50;99.90
76203;DHT22;64985;46.364;17.008;2023-05-18T07:43:50;11.60;99.90
76203;DHT22;64985;46.364;17.008;2023-05-18T07:46:52;11.70;99.90
76203;DHT22;64985;46.364;17.008;2023-05-18T07:49:54;11.70;99.90
76203;DHT22;64985;46.364;17.008;2023-05-18T07:52:57;11.90;99.90
76203;DHT22;64985;46.364;17.008;2023-05-18T07:55:59;12.10;99.90
76203;DHT22;64985;46.364;17.008;2023-05-18T07:59:02;12.20;99.90
76203;DHT22;64985;46.364;17.008;2023-05-18T08:02:04;12.40;99.90
76203;DHT22;64985;46.364;17.008;2023-05-18T08:05:06;12.60;99.90
76203;DHT22;64985;46.364;17.008;2023-05-18T08:08:09;12.70;99.90
76203;DHT22;64985;46.364;17.008;2023-05-18T08:11:16;12.70;98.60
76203;DHT22;64985;46.364;17.008;2023-05-18T08:14:18;12.70;99.90
76203;DHT22;64985;46.364;17.008;2023-05-18T08:17:20;12.70;99.90
76203;DHT22;64985;46.364;17.008;2023-05-18T08:20:22;12.60;99.90
76203;DHT22;64985;46.364;17.008;2023-05-18T08:23:26;12.40;99.90
76203;DHT22;64985;46.364;17.008;2023-05-18T08:26:28;12.40;99.90
76203;DHT22;64985;46.364;17.008;2023-05-18T08:29:30;12.40;99.90
76203;DHT22;64985;46.364;17.008;2023-05-18T08:32:33;12.30;99.90
76203;DHT22;64985;46.364;17.008;2023-05-18T08:35:38;12.40;99.90
76203;DHT22;64985;46.364;17.008;2023-05-18T08:38:40;12.50;99.90
76203;DHT22;64985;46.364;17.008;2023-05-18T08:45:17;12.50;99.20
76203;DHT22;64985;46.364;17.008;2023-05-18T08:48:22;12.50;99.90
76203;DHT22;64985;46.364;17.008;2023-05-18T08:51:33;12.40;99.90
76203;DHT22;64985;46.364;17.008;2023-05-18T08:54:36;12.40;99.20
76203;DHT22;64985;46.364;17.008;2023-05-18T08:57:38;12.40;99.90
76203;DHT22;64985;46.364;17.008;2023-05-18T09:00:43;12.40;98.40
76203;DHT22;64985;46.364;17.008;2023-05-18T09:03:46;12.50;99.80
76203;DHT22;64985;46.364;17.008;2023-05-18T09:06:52;12.60;99.90
76203;DHT22;64985;46.364;17.008;2023-05-18T09:09:55;12.60;99.90
76203;DHT22;64985;46.364;17.008;2023-05-18T09:12:58;12.40;97.60
76203;DHT22;64985;46.364;17.008;2023-05-18T09:16:01;12.40;97.00
76203;DHT22;64985;46.364;17.008;2023-05-18T09:19:03;12.30;99.90
76203;DHT22;64985;46.364;17.008;2023-05-18T09:22:05;12.50;99.30
76203;DHT22;64985;46.364;17.008;2023-05-18T09:25:08;12.40;98.40
76203;DHT22;64985;46.364;17.008;2023-05-18T09:28:12;12.30;98.80
76203;DHT22;64985;46.364;17.008;2023-05-18T09:31:17;12.30;99.70
76203;DHT22;64985;46.364;17.008;2023-05-18T09:34:20;12.40;99.70
76203;DHT22;64985;46.364;17.008;2023-05-18T09:37:22;12.50;99.60
76203;DHT22;64985;46.364;17.008;2023-05-18T09:40:27;12.50;98.80
76203;DHT22;64985;46.364;17.008;2023-05-18T09:43:30;12.60;99.40
76203;DHT22;64985;46.364;17.008;2023-05-18T09:46:35;12.70;99.90
76203;DHT22;64985;46.364;17.008;2023-05-18T09:49:39;12.90;98.90
76203;DHT22;64985;46.364;17.008;2023-05-18T09:52:45;12.90;98.90
76203;DHT22;64985;46.364;17.008;2023-05-18T09:55:48;12.90;97.60
76203;DHT22;64985;46.364;17.008;2023-05-18T09:58:54;12.90;98.60
76203;DHT22;64985;46.364;17.008;2023-05-18T10:01:58;13.00;99.50
76203;DHT22;64985;46.364;17.008;2023-05-18T10:05:03;13.10;97.30
76203;DHT22;64985;46.364;17.008;2023-05-18T10:08:05;13.00;95.50
76203;DHT22;64985;46.364;17.008;2023-05-18T10:11:08;13.00;98.10
76203;DHT22;64985;46.364;17.008;2023-05-18T10:14:10;13.20;99.40
76203;DHT22;64985;46.364;17.008;2023-05-18T10:17:14;13.30;94.90
76203;DHT22;64985;46.364;17.008;2023-05-18T10:20:20;13.30;96.50
76203;DHT22;64985;46.364;17.008;2023-05-18T10:23:28;13.40;95.90
76203;DHT22;64985;46.364;17.008;2023-05-18T10:26:34;13.60;95.70
76203;DHT22;64985;46.364;17.008;2023-05-18T10:29:37;13.80;93.40
76203;DHT22;64985;46.364;17.008;2023-05-18T10:32:42;14.10;91.90
76203;DHT22;64985;46.364;17.008;2023-05-18T10:35:44;14.20;94.40
76203;DHT22;64985;46.364;17.008;2023-05-18T10:38:50;14.50;92.60
76203;DHT22;64985;46.364;17.008;2023-05-18T10:41:57;14.50;93.70
76203;DHT22;64985;46.364;17.008;2023-05-18T10:45:00;14.60;92.80
76203;DHT22;64985;46.364;17.008;2023-05-18T10:48:04;14.70;93.40
76203;DHT22;64985;46.364;17.008;2023-05-18T10:51:09;14.70;82.80
76203;DHT22;64985;46.364;17.008;2023-05-18T10:54:13;14.50;88.10
76203;DHT22;64985;46.364;17.008;2023-05-18T10:57:17;14.60;91.40
76203;DHT22;64985;46.364;17.008;2023-05-18T11:00:20;14.80;94.00
76203;DHT22;64985;46.364;17.008;2023-05-18T11:03:24;14.90;93.50
76203;DHT22;64985;46.364;17.008;2023-05-18T11:06:27;15.10;91.10
76203;DHT22;64985;46.364;17.008;2023-05-18T11:09:30;15.20;89.40
76203;DHT22;64985;46.364;17.008;2023-05-18T11:12:36;15.40;85.60
76203;DHT22;64985;46.364;17.008;2023-05-18T11:19:07;15.40;86.50
76203;DHT22;64985;46.364;17.008;2023-05-18T11:22:12;15.40;85.10
76203;DHT22;64985;46.364;17.008;2023-05-18T11:28:26;15.60;87.50
76203;DHT22;64985;46.364;17.008;2023-05-18T11:31:52;15.70;84.40
76203;DHT22;64985;46.364;17.008;2023-05-18T11:34:55;15.80;81.50
76203;DHT22;64985;46.364;17.008;2023-05-18T11:38:06;15.80;79.80
76203;DHT22;64985;46.364;17.008;2023-05-18T11:41:26;15.80;82.20
76203;DHT22;64985;46.364;17.008;2023-05-18T11:44:29;15.90;81.10
76203;DHT22;64985;46.364;17.008;2023-05-18T11:47:32;15.70;76.90
76203;DHT22;64985;46.364;17.008;2023-05-18T11:50:35;15.50;87.80
76203;DHT22;64985;46.364;17.008;2023-05-18T11:53:37;15.70;88.20
76203;DHT22;64985;46.364;17.008;2023-05-18T11:56:40;15.60;81.00
76203;DHT22;64985;46.364;17.008;2023-05-18T11:59:44;15.60;83.50
76203;DHT22;64985;46.364;17.008;2023-05-18T12:02:47;15.80;85.70
76203;DHT22;64985;46.364;17.008;2023-05-18T12:05:50;15.90;83.10
76203;DHT22;64985;46.364;17.008;2023-05-18T12:08:54;16.00;77.80
76203;DHT22;64985;46.364;17.008;2023-05-18T12:11:56;15.70;77.40
76203;DHT22;64985;46.364;17.008;2023-05-18T12:15:01;15.70;80.00
76203;DHT22;64985;46.364;17.008;2023-05-18T12:18:03;15.90;81.70
76203;DHT22;64985;46.364;17.008;2023-05-18T12:21:05;16.10;79.10
76203;DHT22;64985;46.364;17.008;2023-05-18T12:24:08;16.20;84.70
76203;DHT22;64985;46.364;17.008;2023-05-18T12:27:11;16.40;78.10
76203;DHT22;64985;46.364;17.008;2023-05-18T12:30:18;16.60;76.90
76203;DHT22;64985;46.364;17.008;2023-05-18T12:33:20;16.80;76.30
76203;DHT22;64985;46.364;17.008;2023-05-18T12:36:22;16.90;73.20
76203;DHT22;64985;46.364;17.008;2023-05-18T12:39:24;16.90;74.10
76203;DHT22;64985;46.364;17.008;2023-05-18T12:42:29;16.90;76.60
76203;DHT22;64985;46.364;17.008;2023-05-18T12:45:32;16.70;72.10
76203;DHT22;64985;46.364;17.008;2023-05-18T12:48:37;16.60;76.50
76203;DHT22;64985;46.364;17.008;2023-05-18T12:51:39;16.60;73.60
76203;DHT22;64985;46.364;17.008;2023-05-18T12:54:55;16.50;73.70
76203;DHT22;64985;46.364;17.008;2023-05-18T12:58:10;16.40;75.10
76203;DHT22;64985;46.364;17.008;2023-05-18T13:01:15;16.50;75.10
76203;DHT22;64985;46.364;17.008;2023-05-18T13:04:17;16.50;78.10
76203;DHT22;64985;46.364;17.008;2023-05-18T13:07:19;16.60;76.10
76203;DHT22;64985;46.364;17.008;2023-05-18T13:10:23;16.60;75.50
76203;DHT22;64985;46.364;17.008;2023-05-18T13:13:25;16.50;75.60
76203;DHT22;64985;46.364;17.008;2023-05-18T13:16:27;16.40;73.10
76203;DHT22;64985;46.364;17.008;2023-05-18T13:19:33;16.30;77.50
76203;DHT22;64985;46.364;17.008;2023-05-18T13:22:36;16.50;77.10
76203;DHT22;64985;46.364;17.008;2023-05-18T13:25:39;16.60;77.20
76203;DHT22;64985;46.364;17.008;2023-05-18T13:28:42;17.00;73.30
76203;DHT22;64985;46.364;17.008;2023-05-18T13:31:44;17.20;71.20
76203;DHT22;64985;46.364;17.008;2023-05-18T13:34:46;16.90;71.70
76203;DHT22;64985;46.364;17.008;2023-05-18T13:37:49;16.90;72.80
76203;DHT22;64985;46.364;17.008;2023-05-18T13:40:52;16.80;69.60
76203;DHT22;64985;46.364;17.008;2023-05-18T13:43:54;16.80;73.80
76203;DHT22;64985;46.364;17.008;2023-05-18T13:46:56;16.70;70.60
76203;DHT22;64985;46.364;17.008;2023-05-18T13:49:58;16.40;75.60
76203;DHT22;64985;46.364;17.008;2023-05-18T13:53:00;16.60;82.20
76203;DHT22;64985;46.364;17.008;2023-05-18T13:56:03;16.70;75.70
76203;DHT22;64985;46.364;17.008;2023-05-18T13:59:05;16.70;80.10
76203;DHT22;64985;46.364;17.008;2023-05-18T14:02:08;16.70;76.70
76203;DHT22;64985;46.364;17.008;2023-05-18T14:05:10;16.40;72.70
76203;DHT22;64985;46.364;17.008;2023-05-18T14:08:12;16.30;77.70
76203;DHT22;64985;46.364;17.008;2023-05-18T14:11:15;16.10;76.00
76203;DHT22;64985;46.364;17.008;2023-05-18T14:14:17;15.80;80.90
76203;DHT22;64985;46.364;17.008;2023-05-18T14:17:19;15.70;85.90
76203;DHT22;64985;46.364;17.008;2023-05-18T14:20:21;15.60;88.70
76203;DHT22;64985;46.364;17.008;2023-05-18T14:23:23;15.50;87.30
76203;DHT22;64985;46.364;17.008;2023-05-18T14:26:25;15.50;85.50
76203;DHT22;64985;46.364;17.008;2023-05-18T14:29:28;15.40;85.00
76203;DHT22;64985;46.364;17.008;2023-05-18T14:32:30;15.50;90.90
76203;DHT22;64985;46.364;17.008;2023-05-18T14:35:32;15.60;90.40
76203;DHT22;64985;46.364;17.008;2023-05-18T14:38:34;15.50;90.00
76203;DHT22;64985;46.364;17.008;2023-05-18T14:41:37;15.40;91.30
76203;DHT22;64985;46.364;17.008;2023-05-18T14:44:39;15.40;90.60
76203;DHT22;64985;46.364;17.008;2023-05-18T14:47:41;15.30;89.90
76203;DHT22;64985;46.364;17.008;2023-05-18T14:50:43;15.20;92.00
76203;DHT22;64985;46.364;17.008;2023-05-18T14:53:48;15.20;93.80
76203;DHT22;64985;46.364;17.008;2023-05-18T14:56:50;15.00;90.60
76203;DHT22;64985;46.364;17.008;2023-05-18T14:59:52;15.00;95.30
76203;DHT22;64985;46.364;17.008;2023-05-18T15:02:54;14.70;94.60
76203;DHT22;64985;46.364;17.008;2023-05-18T15:05:57;14.70;96.60
76203;DHT22;64985;46.364;17.008;2023-05-18T15:08:59;14.60;96.00
76203;DHT22;64985;46.364;17.008;2023-05-18T15:12:02;14.60;98.40
76203;DHT22;64985;46.364;17.008;2023-05-18T15:15:04;14.70;96.80
76203;DHT22;64985;46.364;17.008;2023-05-18T15:18:07;14.50;97.00
76203;DHT22;64985;46.364;17.008;2023-05-18T15:21:09;14.60;96.60
76203;DHT22;64985;46.364;17.008;2023-05-18T15:24:12;14.50;98.10
76203;DHT22;64985;46.364;17.008;2023-05-18T15:27:14;14.60;96.20
76203;DHT22;64985;46.364;17.008;2023-05-18T15:30:17;14.50;97.00
76203;DHT22;64985;46.364;17.008;2023-05-18T15:33:19;14.50;97.80
76203;DHT22;64985;46.364;17.008;2023-05-18T15:36:22;14.40;98.50
76203;DHT22;64985;46.364;17.008;2023-05-18T15:39:24;14.40;97.40
76203;DHT22;64985;46.364;17.008;2023-05-18T15:42:26;14.40;98.70
76203;DHT22;64985;46.364;17.008;2023-05-18T15:45:28;14.40;98.60
76203;DHT22;64985;46.364;17.008;2023-05-18T15:48:31;14.40;97.40
76203;DHT22;64985;46.364;17.008;2023-05-18T15:51:33;14.20;96.90
76203;DHT22;64985;46.364;17.008;2023-05-18T15:54:35;14.00;97.80
76203;DHT22;64985;46.364;17.008;2023-05-18T15:57:37;13.80;99.90
76203;DHT22;64985;46.364;17.008;2023-05-18T16:00:39;13.80;99.90
76203;DHT22;64985;46.364;17.008;2023-05-18T16:03:42;13.80;99.90
76203;DHT22;64985;46.364;17.008;2023-05-18T16:06:44;13.80;99.90
76203;DHT22;64985;46.364;17.008;2023-05-18T16:09:47;13.70;99.90
76203;DHT22;64985;46.364;17.008;2023-05-18T16:12:49;13.80;99.90
76203;DHT22;64985;46.364;17.008;2023-05-18T16:15:51;13.70;99.90
76203;DHT22;64985;46.364;17.008;2023-05-18T16:18:53;13.60;99.90
76203;DHT22;64985;46.364;17.008;2023-05-18T16:21:55;13.60;99.90
76203;DHT22;64985;46.364;17.008;2023-05-18T16:24:57;13.60;99.90
76203;DHT22;64985;46.364;17.008;2023-05-18T16:28:00;13.50;99.90
76203;DHT22;64985;46.364;17.008;2023-05-18T16:31:02;13.40;99.90
76203;DHT22;64985;46.364;17.008;2023-05-18T16:34:08;13.30;99.90
76203;DHT22;64985;46.364;17.008;2023-05-18T16:37:10;13.20;99.90
76203;DHT22;64985;46.364;17.008;2023-05-18T16:40:12;13.20;99.90
76203;DHT22;64985;46.364;17.008;2023-05-18T16:43:15;13.20;99.90
76203;DHT22;64985;46.364;17.008;2023-05-18T16:46:17;13.10;99.90
76203;DHT22;64985;46.364;17.008;2023-05-18T16:49:20;13.00;99.90
76203;DHT22;64985;46.364;17.008;2023-05-18T16:52:22;13.00;99.90
76203;DHT22;64985;46.364;17.008;2023-05-18T16:55:25;12.90;99.90
76203;DHT22;64985;46.364;17.008;2023-05-18T16:58:27;12.70;99.90
76203;DHT22;64985;46.364;17.008;2023-05-18T17:01:29;12.60;99.90
76203;DHT22;64985;46.364;17.008;2023-05-18T17:04:32;12.50;99.90
76203;DHT22;64985;46.364;17.008;2023-05-18T17:07:35;12.50;99.90
76203;DHT22;64985;46.364;17.008;2023-05-18T17:10:37;12.50;99.90
76203;DHT22;64985;46.364;17.008;2023-05-18T17:13:40;12.50;99.90
76203;DHT22;64985;46.364;17.008;2023-05-18T17:16:42;12.40;99.90
76203;DHT22;64985;46.364;17.008;2023-05-18T17:19:46;12.40;99.90
76203;DHT22;64985;46.364;17.008;2023-05-18T17:22:49;12.30;99.90
76203;DHT22;64985;46.364;17.008;2023-05-18T17:25:51;12.30;99.90
76203;DHT22;64985;46.364;17.008;2023-05-18T17:29:06;12.30;99.90
76203;DHT22;64985;46.364;17.008;2023-05-18T17:32:08;12.20;99.90
76203;DHT22;64985;46.364;17.008;2023-05-18T17:35:10;12.20;99.90
76203;DHT22;64985;46.364;17.008;2023-05-18T17:38:15;12.20;99.90
76203;DHT22;64985;46.364;17.008;2023-05-18T17:41:17;12.20;99.90
76203;DHT22;64985;46.364;17.008;2023-05-18T17:44:22;12.10;99.90
76203;DHT22;64985;46.364;17.008;2023-05-18T17:47:24;12.10;99.90
76203;DHT22;64985;46.364;17.008;2023-05-18T17:50:26;12.00;99.90
76203;DHT22;64985;46.364;17.008;2023-05-18T17:53:28;12.10;99.90
76203;DHT22;64985;46.364;17.008;2023-05-18T17:56:33;12.00;99.90
76203;DHT22;64985;46.364;17.008;2023-05-18T17:59:35;12.00;99.90
76203;DHT22;64985;46.364;17.008;2023-05-18T18:02:38;11.90;99.90
76203;DHT22;64985;46.364;17.008;2023-05-18T18:05:42;11.90;99.90
76203;DHT22;64985;46.364;17.008;2023-05-18T18:08:44;11.90;99.90
76203;DHT22;64985;46.364;17.008;2023-05-18T18:11:47;11.80;99.90
76203;DHT22;64985;46.364;17.008;2023-05-18T18:14:50;11.80;99.90
76203;DHT22;64985;46.364;17.008;2023-05-18T18:17:53;11.70;99.90
76203;DHT22;64985;46.364;17.008;2023-05-18T18:20:57;11.60;99.90
76203;DHT22;64985;46.364;17.008;2023-05-18T18:24:00;11.60;99.90
76203;DHT22;64985;46.364;17.008;2023-05-18T18:27:04;11.50;99.90
76203;DHT22;64985;46.364;17.008;2023-05-18T18:30:07;11.40;99.90
76203;DHT22;64985;46.364;17.008;2023-05-18T18:33:10;11.40;99.90
76203;DHT22;64985;46.364;17.008;2023-05-18T18:36:13;11.30;99.90
76203;DHT22;64985;46.364;17.008;2023-05-18T18:39:16;11.30;99.90
76203;DHT22;64985;46.364;17.008;2023-05-18T18:42:19;11.20;99.90
76203;DHT22;64985;46.364;17.008;2023-05-18T18:45:23;11.20;99.90
76203;DHT22;64985;46.364;17.008;2023-05-18T18:48:27;11.10;99.90
76203;DHT22;64985;46.364;17.008;2023-05-18T18:51:30;11.10;99.90
76203;DHT22;64985;46.364;17.008;2023-05-18T18:54:33;11.10;99.90
76203;DHT22;64985;46.364;17.008;2023-05-18T18:57:36;11.10;99.90
76203;DHT22;64985;46.364;17.008;2023-05-18T19:00:40;11.10;99.90
76203;DHT22;64985;46.364;17.008;2023-05-18T19:03:44;11.00;99.90
76203;DHT22;64985;46.364;17.008;2023-05-18T19:06:47;11.00;99.90
76203;DHT22;64985;46.364;17.008;2023-05-18T19:09:50;11.00;99.90
76203;DHT22;64985;46.364;17.008;2023-05-18T19:12:53;11.00;99.90
76203;DHT22;64985;46.364;17.008;2023-05-18T19:15:56;10.90;99.90
76203;DHT22;64985;46.364;17.008;2023-05-18T19:18:59;10.90;99.90
76203;DHT22;64985;46.364;17.008;2023-05-18T19:22:03;10.90;99.90
76203;DHT22;64985;46.364;17.008;2023-05-18T19:25:07;10.90;99.90
76203;DHT22;64985;46.364;17.008;2023-05-18T19:28:10;10.90;99.90